sensor_id;sensor_type;location;lat;lon;timestamp;pressure;altitude;pressure_sealevel;temperature;humidity
7668;BME280;3876;42.204;24.686;2023-08-24T00:01:46;99371.13;;;27.71;57.46
7668;BME280;3876;42.204;24.686;2023-08-24T00:04:14;99360.19;;;27.58;58.13
7668;BME280;3876;42.204;24.686;2023-08-24T00:06:41;99375.69;;;27.61;58.67
7668;BME280;3876;42.204;24.686;2023-08-24T00:09:08;99377.44;;;27.52;58.13
7668;BME280;3876;42.204;24.686;2023-08-24T00:11:34;99374.31;;;27.57;59.34
7668;BME280;3876;42.204;24.686;2023-08-24T00:14:01;99372.00;;;27.54;59.56
7668;BME280;3876;42.204;24.686;2023-08-24T00:16:28;99365.38;;;27.50;59.07
7668;BME280;3876;42.204;24.686;2023-08-24T00:18:54;99367.53;;;27.46;58.90
7668;BME280;3876;42.204;24.686;2023-08-24T00:21:23;99339.38;;;27.29;59.27
7668;BME280;3876;42.204;24.686;2023-08-24T00:23:49;99345.56;;;27.20;60.40
7668;BME280;3876;42.204;24.686;2023-08-24T00:26:18;99364.88;;;27.29;60.94
7668;BME280;3876;42.204;24.686;2023-08-24T00:28:45;99361.41;;;27.28;60.86
7668;BME280;3876;42.204;24.686;2023-08-24T00:31:12;99363.22;;;27.28;60.76
7668;BME280;3876;42.204;24.686;2023-08-24T00:33:39;99370.47;;;27.26;60.47
7668;BME280;3876;42.204;24.686;2023-08-24T00:36:06;99359.19;;;27.16;60.58
7668;BME280;3876;42.204;24.686;2023-08-24T00:38:34;99373.00;;;27.18;60.69
7668;BME280;3876;42.204;24.686;2023-08-24T00:41:02;99368.75;;;27.17;60.63
7668;BME280;3876;42.204;24.686;2023-08-24T00:43:28;99364.31;;;27.17;59.70
7668;BME280;3876;42.204;24.686;2023-08-24T00:45:57;99359.19;;;27.16;59.68
7668;BME280;3876;42.204;24.686;2023-08-24T00:48:25;99354.88;;;27.14;60.23
7668;BME280;3876;42.204;24.686;2023-08-24T00:50:54;99356.84;;;27.12;59.41
7668;BME280;3876;42.204;24.686;2023-08-24T00:53:21;99359.78;;;27.09;59.80
7668;BME280;3876;42.204;24.686;2023-08-24T00:55:53;99332.28;;;26.86;60.12
7668;BME280;3876;42.204;24.686;2023-08-24T00:58:20;99356.72;;;26.96;60.99
7668;BME280;3876;42.204;24.686;2023-08-24T01:00:47;99355.53;;;26.91;60.78
7668;BME280;3876;42.204;24.686;2023-08-24T01:03:15;99354.31;;;26.85;61.26
7668;BME280;3876;42.204;24.686;2023-08-24T01:05:42;99364.34;;;26.72;61.86
7668;BME280;3876;42.204;24.686;2023-08-24T01:08:09;99364.28;;;26.64;62.24
7668;BME280;3876;42.204;24.686;2023-08-24T01:10:41;99365.53;;;26.60;62.58
7668;BME280;3876;42.204;24.686;2023-08-24T01:13:16;99360.44;;;26.58;63.39
7668;BME280;3876;42.204;24.686;2023-08-24T01:15:51;99365.16;;;26.55;62.62
7668;BME280;3876;42.204;24.686;2023-08-24T01:18:23;99367.09;;;26.53;63.13
7668;BME280;3876;42.204;24.686;2023-08-24T01:20:53;99353.59;;;26.48;63.54
7668;BME280;3876;42.204;24.686;2023-08-24T01:23:31;99340.88;;;26.43;63.78
7668;BME280;3876;42.204;24.686;2023-08-24T01:26:06;99349.44;;;26.45;64.59
7668;BME280;3876;42.204;24.686;2023-08-24T01:28:34;99342.53;;;26.44;64.37
7668;BME280;3876;42.204;24.686;2023-08-24T01:31:01;99354.72;;;26.45;64.19
7668;BME280;3876;42.204;24.686;2023-08-24T01:33:27;99352.22;;;26.44;64.20
7668;BME280;3876;42.204;24.686;2023-08-24T01:35:54;99348.91;;;26.42;64.06
7668;BME280;3876;42.204;24.686;2023-08-24T01:38:21;99337.34;;;26.35;64.49
7668;BME280;3876;42.204;24.686;2023-08-24T01:40:53;99337.34;;;26.35;64.71
7668;BME280;3876;42.204;24.686;2023-08-24T01:43:29;99320.78;;;26.25;64.27
7668;BME280;3876;42.204;24.686;2023-08-24T01:45:59;99328.09;;;26.31;64.97
7668;BME280;3876;42.204;24.686;2023-08-24T01:48:28;99337.53;;;26.24;65.50
7668;BME280;3876;42.204;24.686;2023-08-24T01:50:56;99339.09;;;26.17;65.43
7668;BME280;3876;42.204;24.686;2023-08-24T01:53:23;99333.56;;;26.10;65.82
7668;BME280;3876;42.204;24.686;2023-08-24T01:55:51;99329.16;;;26.10;65.35
7668;BME280;3876;42.204;24.686;2023-08-24T01:58:18;99327.50;;;26.09;65.29
7668;BME280;3876;42.204;24.686;2023-08-24T02:00:46;99324.69;;;26.11;65.21
7668;BME280;3876;42.204;24.686;2023-08-24T02:03:13;99330.41;;;26.06;65.29
7668;BME280;3876;42.204;24.686;2023-08-24T02:05:40;99335.25;;;26.01;66.02
7668;BME280;3876;42.204;24.686;2023-08-24T02:08:07;99340.13;;;25.96;65.99
7668;BME280;3876;42.204;24.686;2023-08-24T02:10:33;99322.09;;;25.84;66.28
7668;BME280;3876;42.204;24.686;2023-08-24T02:13:00;99331.16;;;25.89;66.04
7668;BME280;3876;42.204;24.686;2023-08-24T02:15:27;99327.34;;;25.84;66.23
7668;BME280;3876;42.204;24.686;2023-08-24T02:17:55;99326.78;;;25.80;66.83
7668;BME280;3876;42.204;24.686;2023-08-24T02:20:22;99328.88;;;25.77;67.49
7668;BME280;3876;42.204;24.686;2023-08-24T02:22:48;99330.97;;;25.73;68.02
7668;BME280;3876;42.204;24.686;2023-08-24T02:25:15;99329.28;;;25.72;67.64
7668;BME280;3876;42.204;24.686;2023-08-24T02:27:42;99331.91;;;25.72;67.67
7668;BME280;3876;42.204;24.686;2023-08-24T02:30:09;99334.84;;;25.69;68.25
7668;BME280;3876;42.204;24.686;2023-08-24T02:32:36;99344.41;;;25.61;67.64
7668;BME280;3876;42.204;24.686;2023-08-24T02:35:06;99340.69;;;25.53;68.10
7668;BME280;3876;42.204;24.686;2023-08-24T02:37:33;99350.91;;;25.47;68.73
7668;BME280;3876;42.204;24.686;2023-08-24T02:39:59;99340.97;;;25.41;69.85
7668;BME280;3876;42.204;24.686;2023-08-24T02:42:26;99345.81;;;25.36;70.43
7668;BME280;3876;42.204;24.686;2023-08-24T02:44:53;99339.31;;;25.30;70.50
7668;BME280;3876;42.204;24.686;2023-08-24T02:47:19;99336.03;;;25.28;71.41
7668;BME280;3876;42.204;24.686;2023-08-24T02:49:46;99341.84;;;25.22;71.47
7668;BME280;3876;42.204;24.686;2023-08-24T02:52:14;99338.50;;;25.11;72.36
7668;BME280;3876;42.204;24.686;2023-08-24T02:54:41;99333.53;;;25.07;72.75
7668;BME280;3876;42.204;24.686;2023-08-24T02:57:07;99339.06;;;25.04;73.16
7668;BME280;3876;42.204;24.686;2023-08-24T02:59:34;99344.75;;;25.00;73.37
7668;BME280;3876;42.204;24.686;2023-08-24T03:02:01;99341.84;;;24.93;73.64
7668;BME280;3876;42.204;24.686;2023-08-24T03:04:28;99340.47;;;24.89;74.23
7668;BME280;3876;42.204;24.686;2023-08-24T03:06:54;99338.69;;;24.90;73.94
7668;BME280;3876;42.204;24.686;2023-08-24T03:09:23;99332.75;;;24.88;73.92
7668;BME280;3876;42.204;24.686;2023-08-24T03:11:50;99339.50;;;24.90;74.29
7668;BME280;3876;42.204;24.686;2023-08-24T03:14:17;99338.81;;;24.88;74.01
7668;BME280;3876;42.204;24.686;2023-08-24T03:16:44;99341.69;;;24.85;74.56
7668;BME280;3876;42.204;24.686;2023-08-24T03:19:11;99337.69;;;24.81;74.06
7668;BME280;3876;42.204;24.686;2023-08-24T03:21:39;99337.53;;;24.73;74.97
7668;BME280;3876;42.204;24.686;2023-08-24T03:24:06;99347.34;;;24.71;75.10
7668;BME280;3876;42.204;24.686;2023-08-24T03:26:34;99353.38;;;24.62;76.27
7668;BME280;3876;42.204;24.686;2023-08-24T03:29:01;99349.78;;;24.53;76.89
7668;BME280;3876;42.204;24.686;2023-08-24T03:31:28;99348.38;;;24.40;77.11
7668;BME280;3876;42.204;24.686;2023-08-24T03:33:54;99354.69;;;24.28;77.70
7668;BME280;3876;42.204;24.686;2023-08-24T03:36:21;99348.59;;;24.18;78.45
7668;BME280;3876;42.204;24.686;2023-08-24T03:38:48;99356.47;;;24.18;78.64
7668;BME280;3876;42.204;24.686;2023-08-24T03:41:15;99347.44;;;24.11;78.95
7668;BME280;3876;42.204;24.686;2023-08-24T03:43:43;99339.97;;;23.96;79.53
7668;BME280;3876;42.204;24.686;2023-08-24T03:46:09;99356.81;;;24.03;79.61
7668;BME280;3876;42.204;24.686;2023-08-24T03:48:36;99366.16;;;23.96;80.16
7668;BME280;3876;42.204;24.686;2023-08-24T03:51:03;99366.69;;;23.90;80.59
7668;BME280;3876;42.204;24.686;2023-08-24T03:53:30;99364.44;;;23.86;80.46
7668;BME280;3876;42.204;24.686;2023-08-24T03:55:57;99377.16;;;23.90;80.62
7668;BME280;3876;42.204;24.686;2023-08-24T03:58:24;99376.88;;;23.93;80.62
7668;BME280;3876;42.204;24.686;2023-08-24T04:00:52;99379.94;;;23.98;80.69
7668;BME280;3876;42.204;24.686;2023-08-24T04:03:19;99378.19;;;24.09;80.13
7668;BME280;3876;42.204;24.686;2023-08-24T04:05:46;99378.63;;;24.14;79.65
7668;BME280;3876;42.204;24.686;2023-08-24T04:08:13;99380.31;;;24.15;79.64
7668;BME280;3876;42.204;24.686;2023-08-24T04:10:39;99371.50;;;24.16;79.38
7668;BME280;3876;42.204;24.686;2023-08-24T04:13:06;99371.50;;;24.16;79.22
7668;BME280;3876;42.204;24.686;2023-08-24T04:15:33;99377.69;;;24.15;79.19
7668;BME280;3876;42.204;24.686;2023-08-24T04:18:01;99383.38;;;24.20;79.53
7668;BME280;3876;42.204;24.686;2023-08-24T04:20:30;99370.13;;;24.21;80.15
7668;BME280;3876;42.204;24.686;2023-08-24T04:22:57;99382.03;;;24.35;79.17
7668;BME280;3876;42.204;24.686;2023-08-24T04:25:24;99380.13;;;24.46;79.24
7668;BME280;3876;42.204;24.686;2023-08-24T04:27:51;99376.84;;;24.54;78.33
7668;BME280;3876;42.204;24.686;2023-08-24T04:30:18;99378.78;;;24.62;77.04
7668;BME280;3876;42.204;24.686;2023-08-24T04:32:45;99384.06;;;24.71;78.33
7668;BME280;3876;42.204;24.686;2023-08-24T04:35:13;99385.13;;;24.78;77.73
7668;BME280;3876;42.204;24.686;2023-08-24T04:37:39;99395.13;;;24.84;76.08
7668;BME280;3876;42.204;24.686;2023-08-24T04:40:07;99399.28;;;24.96;76.18
7668;BME280;3876;42.204;24.686;2023-08-24T04:42:33;99399.84;;;25.00;75.21
7668;BME280;3876;42.204;24.686;2023-08-24T04:45:00;99398.19;;;25.08;74.66
7668;BME280;3876;42.204;24.686;2023-08-24T04:47:27;99398.44;;;25.15;75.16
7668;BME280;3876;42.204;24.686;2023-08-24T04:49:54;99404.25;;;25.19;74.67
7668;BME280;3876;42.204;24.686;2023-08-24T04:52:22;99401.34;;;25.22;74.87
7668;BME280;3876;42.204;24.686;2023-08-24T04:54:49;99401.75;;;25.27;75.13
7668;BME280;3876;42.204;24.686;2023-08-24T04:57:16;99398.88;;;25.30;75.22
7668;BME280;3876;42.204;24.686;2023-08-24T04:59:43;99408.09;;;25.43;75.49
7668;BME280;3876;42.204;24.686;2023-08-24T05:02:10;99394.28;;;25.41;75.39
7668;BME280;3876;42.204;24.686;2023-08-24T05:04:36;99396.78;;;25.62;75.38
7668;BME280;3876;42.204;24.686;2023-08-24T05:07:03;99387.09;;;25.63;74.10
7668;BME280;3876;42.204;24.686;2023-08-24T05:09:31;99402.03;;;25.72;75.10
7668;BME280;3876;42.204;24.686;2023-08-24T05:11:58;99394.50;;;25.86;74.88
7668;BME280;3876;42.204;24.686;2023-08-24T05:14:24;99395.84;;;26.00;72.84
7668;BME280;3876;42.204;24.686;2023-08-24T05:16:51;99399.00;;;26.03;72.82
7668;BME280;3876;42.204;24.686;2023-08-24T05:19:18;99397.72;;;26.07;73.21
7668;BME280;3876;42.204;24.686;2023-08-24T05:21:45;99399.94;;;26.12;72.25
7668;BME280;3876;42.204;24.686;2023-08-24T05:24:12;99408.09;;;26.19;72.07
7668;BME280;3876;42.204;24.686;2023-08-24T05:26:40;99417.63;;;26.29;71.34
7668;BME280;3876;42.204;24.686;2023-08-24T05:29:07;99408.19;;;26.36;70.12
7668;BME280;3876;42.204;24.686;2023-08-24T05:31:33;99413.94;;;26.40;70.28
7668;BME280;3876;42.204;24.686;2023-08-24T05:34:00;99405.91;;;26.41;69.90
7668;BME280;3876;42.204;24.686;2023-08-24T05:36:27;99410.59;;;26.47;70.17
7668;BME280;3876;42.204;24.686;2023-08-24T05:38:54;99417.47;;;26.58;69.99
7668;BME280;3876;42.204;24.686;2023-08-24T05:41:22;99409.81;;;26.65;69.79
7668;BME280;3876;42.204;24.686;2023-08-24T05:43:50;99404.09;;;26.69;70.26
7668;BME280;3876;42.204;24.686;2023-08-24T05:46:18;99401.56;;;26.77;70.29
7668;BME280;3876;42.204;24.686;2023-08-24T05:48:44;99401.66;;;26.85;70.69
7668;BME280;3876;42.204;24.686;2023-08-24T05:51:11;99401.53;;;26.87;69.11
7668;BME280;3876;42.204;24.686;2023-08-24T05:53:38;99402.34;;;26.87;69.63
7668;BME280;3876;42.204;24.686;2023-08-24T05:56:06;99400.84;;;26.85;69.24
7668;BME280;3876;42.204;24.686;2023-08-24T05:58:32;99409.25;;;26.88;70.27
7668;BME280;3876;42.204;24.686;2023-08-24T06:01:00;99409.72;;;27.01;71.83
7668;BME280;3876;42.204;24.686;2023-08-24T06:03:27;99402.66;;;27.20;69.88
7668;BME280;3876;42.204;24.686;2023-08-24T06:05:54;99406.25;;;27.36;68.47
7668;BME280;3876;42.204;24.686;2023-08-24T06:08:26;99408.22;;;27.52;66.76
7668;BME280;3876;42.204;24.686;2023-08-24T06:10:53;99402.69;;;27.63;67.45
7668;BME280;3876;42.204;24.686;2023-08-24T06:13:20;99406.97;;;27.64;64.98
7668;BME280;3876;42.204;24.686;2023-08-24T06:15:46;99402.53;;;27.64;64.92
7668;BME280;3876;42.204;24.686;2023-08-24T06:18:14;99412.97;;;27.74;65.68
7668;BME280;3876;42.204;24.686;2023-08-24T06:20:41;99413.63;;;27.76;64.96
7668;BME280;3876;42.204;24.686;2023-08-24T06:23:08;99417.94;;;27.77;64.33
7668;BME280;3876;42.204;24.686;2023-08-24T06:25:35;99418.59;;;27.79;63.27
7668;BME280;3876;42.204;24.686;2023-08-24T06:28:02;99419.09;;;27.83;64.06
7668;BME280;3876;42.204;24.686;2023-08-24T06:30:30;99417.16;;;27.85;64.57
7668;BME280;3876;42.204;24.686;2023-08-24T06:33:02;99425.88;;;27.85;66.53
7668;BME280;3876;42.204;24.686;2023-08-24T06:35:31;99423.94;;;27.87;66.34
7668;BME280;3876;42.204;24.686;2023-08-24T06:37:58;99420.97;;;27.90;65.89
7668;BME280;3876;42.204;24.686;2023-08-24T06:40:25;99424.13;;;27.94;65.87
7668;BME280;3876;42.204;24.686;2023-08-24T06:42:51;99435.81;;;27.91;64.32
7668;BME280;3876;42.204;24.686;2023-08-24T06:45:18;99446.03;;;27.94;63.03
7668;BME280;3876;42.204;24.686;2023-08-24T06:47:45;99466.09;;;27.87;62.33
7668;BME280;3876;42.204;24.686;2023-08-24T06:50:11;99463.03;;;27.56;63.12
7668;BME280;3876;42.204;24.686;2023-08-24T06:52:40;99475.81;;;27.16;65.43
7668;BME280;3876;42.204;24.686;2023-08-24T06:55:08;99490.56;;;27.09;65.51
7668;BME280;3876;42.204;24.686;2023-08-24T06:57:35;99510.16;;;26.97;65.41
7668;BME280;3876;42.204;24.686;2023-08-24T07:00:03;99513.69;;;26.88;65.88
7668;BME280;3876;42.204;24.686;2023-08-24T07:02:32;99514.47;;;26.88;67.95
7668;BME280;3876;42.204;24.686;2023-08-24T07:04:59;99537.13;;;26.81;75.09
7668;BME280;3876;42.204;24.686;2023-08-24T07:07:29;99532.34;;;26.57;83.47
7668;BME280;3876;42.204;24.686;2023-08-24T07:09:57;99485.25;;;26.27;96.26
7668;BME280;3876;42.204;24.686;2023-08-24T07:12:24;99447.91;;;25.68;100.00
7668;BME280;3876;42.204;24.686;2023-08-24T07:14:50;99387.69;;;24.89;100.00
7668;BME280;3876;42.204;24.686;2023-08-24T07:17:17;99386.38;;;24.15;100.00
7668;BME280;3876;42.204;24.686;2023-08-24T07:19:44;99392.72;;;23.92;100.00
7668;BME280;3876;42.204;24.686;2023-08-24T07:22:11;99371.81;;;23.71;100.00
7668;BME280;3876;42.204;24.686;2023-08-24T07:24:37;99390.75;;;23.84;100.00
7668;BME280;3876;42.204;24.686;2023-08-24T07:27:06;99399.22;;;23.97;100.00
7668;BME280;3876;42.204;24.686;2023-08-24T07:29:33;99392.63;;;24.03;100.00
7668;BME280;3876;42.204;24.686;2023-08-24T07:32:00;99400.03;;;24.19;100.00
7668;BME280;3876;42.204;24.686;2023-08-24T07:34:28;99415.41;;;24.33;100.00
7668;BME280;3876;42.204;24.686;2023-08-24T07:36:55;99410.72;;;24.46;100.00
7668;BME280;3876;42.204;24.686;2023-08-24T07:39:22;99431.06;;;24.63;100.00
7668;BME280;3876;42.204;24.686;2023-08-24T07:41:49;99454.66;;;24.63;100.00
7668;BME280;3876;42.204;24.686;2023-08-24T07:44:17;99441.19;;;24.77;100.00
7668;BME280;3876;42.204;24.686;2023-08-24T07:46:43;99431.03;;;24.93;100.00
7668;BME280;3876;42.204;24.686;2023-08-24T07:49:10;99426.59;;;24.84;100.00
7668;BME280;3876;42.204;24.686;2023-08-24T07:51:37;99428.25;;;25.04;100.00
7668;BME280;3876;42.204;24.686;2023-08-24T07:54:04;99418.06;;;25.30;100.00
7668;BME280;3876;42.204;24.686;2023-08-24T07:56:32;99420.53;;;25.61;100.00
7668;BME280;3876;42.204;24.686;2023-08-24T07:58:59;99425.88;;;25.97;100.00
7668;BME280;3876;42.204;24.686;2023-08-24T08:01:27;99424.75;;;26.37;100.00
7668;BME280;3876;42.204;24.686;2023-08-24T08:03:54;99427.47;;;26.72;100.00
7668;BME280;3876;42.204;24.686;2023-08-24T08:06:21;99427.16;;;27.02;100.00
7668;BME280;3876;42.204;24.686;2023-08-24T08:08:50;99430.56;;;27.30;100.00
7668;BME280;3876;42.204;24.686;2023-08-24T08:11:17;99429.88;;;27.46;100.00
7668;BME280;3876;42.204;24.686;2023-08-24T08:13:43;99440.03;;;27.58;100.00
7668;BME280;3876;42.204;24.686;2023-08-24T08:16:10;99437.44;;;27.67;100.00
7668;BME280;3876;42.204;24.686;2023-08-24T08:18:39;99448.50;;;27.96;100.00
7668;BME280;3876;42.204;24.686;2023-08-24T08:21:09;99452.28;;;28.11;100.00
7668;BME280;3876;42.204;24.686;2023-08-24T08:23:36;99447.38;;;28.24;100.00
7668;BME280;3876;42.204;24.686;2023-08-24T08:26:03;99437.72;;;28.41;100.00
7668;BME280;3876;42.204;24.686;2023-08-24T08:28:30;99432.84;;;28.54;100.00
7668;BME280;3876;42.204;24.686;2023-08-24T08:30:59;99439.13;;;28.61;97.00
7668;BME280;3876;42.204;24.686;2023-08-24T08:33:25;99447.41;;;28.66;92.75
7668;BME280;3876;42.204;24.686;2023-08-24T08:35:53;99431.47;;;28.76;92.06
7668;BME280;3876;42.204;24.686;2023-08-24T08:38:20;99433.97;;;28.85;90.35
7668;BME280;3876;42.204;24.686;2023-08-24T08:40:51;99434.47;;;28.97;90.32
7668;BME280;3876;42.204;24.686;2023-08-24T08:43:21;99425.56;;;28.98;85.28
7668;BME280;3876;42.204;24.686;2023-08-24T08:45:48;99423.19;;;28.71;90.24
7668;BME280;3876;42.204;24.686;2023-08-24T08:48:15;99421.22;;;28.73;93.38
7668;BME280;3876;42.204;24.686;2023-08-24T08:50:42;99425.38;;;28.83;91.45
7668;BME280;3876;42.204;24.686;2023-08-24T08:53:10;99415.16;;;28.88;93.03
7668;BME280;3876;42.204;24.686;2023-08-24T08:55:38;99415.16;;;28.88;92.05
7668;BME280;3876;42.204;24.686;2023-08-24T08:58:05;99416.81;;;28.89;91.87
7668;BME280;3876;42.204;24.686;2023-08-24T09:00:33;99407.72;;;28.84;90.20
7668;BME280;3876;42.204;24.686;2023-08-24T09:03:01;99415.69;;;28.92;89.36
7668;BME280;3876;42.204;24.686;2023-08-24T09:05:30;99404.78;;;28.95;87.54
7668;BME280;3876;42.204;24.686;2023-08-24T09:07:57;99411.03;;;29.02;89.86
7668;BME280;3876;42.204;24.686;2023-08-24T09:10:26;99403.31;;;29.00;89.79
7668;BME280;3876;42.204;24.686;2023-08-24T09:12:53;99410.56;;;29.14;89.04
7668;BME280;3876;42.204;24.686;2023-08-24T09:15:34;99413.22;;;29.31;91.52
7668;BME280;3876;42.204;24.686;2023-08-24T09:18:02;99407.97;;;29.39;85.86
7668;BME280;3876;42.204;24.686;2023-08-24T09:20:28;99419.53;;;29.46;85.73
7668;BME280;3876;42.204;24.686;2023-08-24T09:22:56;99405.31;;;29.47;85.57
7668;BME280;3876;42.204;24.686;2023-08-24T09:25:23;99408.59;;;29.57;85.54
7668;BME280;3876;42.204;24.686;2023-08-24T09:27:57;99408.28;;;29.68;83.57
7668;BME280;3876;42.204;24.686;2023-08-24T09:30:29;99394.06;;;29.69;85.38
7668;BME280;3876;42.204;24.686;2023-08-24T09:32:56;99407.44;;;29.84;87.46
7668;BME280;3876;42.204;24.686;2023-08-24T09:35:27;99391.59;;;29.84;86.20
7668;BME280;3876;42.204;24.686;2023-08-24T09:37:53;99392.03;;;29.95;83.13
7668;BME280;3876;42.204;24.686;2023-08-24T09:40:24;99377.63;;;30.06;83.65
7668;BME280;3876;42.204;24.686;2023-08-24T09:42:51;99399.53;;;30.31;84.04
7668;BME280;3876;42.204;24.686;2023-08-24T09:45:19;99378.03;;;30.34;84.58
7668;BME280;3876;42.204;24.686;2023-08-24T09:47:48;99389.84;;;30.54;78.66
7668;BME280;3876;42.204;24.686;2023-08-24T09:50:15;99387.06;;;30.78;78.44
7668;BME280;3876;42.204;24.686;2023-08-24T09:52:42;99364.81;;;30.87;77.25
7668;BME280;3876;42.204;24.686;2023-08-24T09:55:09;99389.22;;;31.05;83.21
7668;BME280;3876;42.204;24.686;2023-08-24T09:57:39;99390.69;;;31.08;80.48
7668;BME280;3876;42.204;24.686;2023-08-24T10:00:07;99398.63;;;31.31;78.27
7668;BME280;3876;42.204;24.686;2023-08-24T10:02:45;99396.13;;;31.52;76.75
7668;BME280;3876;42.204;24.686;2023-08-24T10:05:16;99404.94;;;31.67;75.53
7668;BME280;3876;42.204;24.686;2023-08-24T10:07:50;99389.22;;;31.80;78.43
7668;BME280;3876;42.204;24.686;2023-08-24T10:10:18;99390.06;;;31.81;77.52
7668;BME280;3876;42.204;24.686;2023-08-24T10:12:49;99382.66;;;31.76;76.20
7668;BME280;3876;42.204;24.686;2023-08-24T10:15:17;99365.47;;;31.72;77.31
7668;BME280;3876;42.204;24.686;2023-08-24T10:17:46;99376.16;;;31.93;76.33
7668;BME280;3876;42.204;24.686;2023-08-24T10:20:14;99373.91;;;32.05;77.75
7668;BME280;3876;42.204;24.686;2023-08-24T10:22:42;99364.38;;;32.10;75.93
7668;BME280;3876;42.204;24.686;2023-08-24T10:25:09;99353.16;;;32.08;72.50
7668;BME280;3876;42.204;24.686;2023-08-24T10:27:39;99356.69;;;32.15;68.76
7668;BME280;3876;42.204;24.686;2023-08-24T10:30:10;99351.00;;;32.18;68.12
7668;BME280;3876;42.204;24.686;2023-08-24T10:32:38;99342.88;;;32.20;70.27
7668;BME280;3876;42.204;24.686;2023-08-24T10:35:08;99337.13;;;32.16;71.60
7668;BME280;3876;42.204;24.686;2023-08-24T10:37:34;99335.84;;;32.12;72.32
7668;BME280;3876;42.204;24.686;2023-08-24T10:40:01;99331.44;;;32.19;71.02
7668;BME280;3876;42.204;24.686;2023-08-24T10:42:43;99323.09;;;32.37;73.10
7668;BME280;3876;42.204;24.686;2023-08-24T10:45:10;99330.16;;;32.51;73.84
7668;BME280;3876;42.204;24.686;2023-08-24T10:47:44;99323.94;;;32.59;71.49
7668;BME280;3876;42.204;24.686;2023-08-24T10:50:14;99310.38;;;32.68;64.78
7668;BME280;3876;42.204;24.686;2023-08-24T10:52:43;99311.44;;;32.95;64.99
7668;BME280;3876;42.204;24.686;2023-08-24T10:55:23;99309.97;;;33.14;64.75
7668;BME280;3876;42.204;24.686;2023-08-24T10:57:57;99302.06;;;33.20;68.85
7668;BME280;3876;42.204;24.686;2023-08-24T11:00:26;99303.06;;;33.19;67.35
7668;BME280;3876;42.204;24.686;2023-08-24T11:02:54;99294.91;;;33.21;61.55
7668;BME280;3876;42.204;24.686;2023-08-24T11:05:23;99295.78;;;33.35;61.95
7668;BME280;3876;42.204;24.686;2023-08-24T11:07:55;99282.84;;;33.53;60.06
7668;BME280;3876;42.204;24.686;2023-08-24T11:10:23;99276.03;;;33.78;61.45
7668;BME280;3876;42.204;24.686;2023-08-24T11:13:07;99277.75;;;33.92;64.75
7668;BME280;3876;42.204;24.686;2023-08-24T11:15:36;99265.44;;;33.85;63.39
7668;BME280;3876;42.204;24.686;2023-08-24T11:18:13;99256.41;;;33.79;63.12
7668;BME280;3876;42.204;24.686;2023-08-24T11:20:44;99260.53;;;33.88;62.70
7668;BME280;3876;42.204;24.686;2023-08-24T11:23:11;99253.38;;;33.89;63.67
7668;BME280;3876;42.204;24.686;2023-08-24T11:25:38;99254.84;;;33.98;59.97
7668;BME280;3876;42.204;24.686;2023-08-24T11:28:05;99244.84;;;34.06;66.76
7668;BME280;3876;42.204;24.686;2023-08-24T11:30:32;99239.56;;;34.13;61.32
7668;BME280;3876;42.204;24.686;2023-08-24T11:32:59;99232.84;;;34.23;61.88
7668;BME280;3876;42.204;24.686;2023-08-24T11:35:27;99227.09;;;34.26;61.69
7668;BME280;3876;42.204;24.686;2023-08-24T11:37:55;99228.56;;;34.36;57.72
7668;BME280;3876;42.204;24.686;2023-08-24T11:40:23;99220.56;;;34.36;55.76
7668;BME280;3876;42.204;24.686;2023-08-24T11:42:53;99202.34;;;34.33;58.02
7668;BME280;3876;42.204;24.686;2023-08-24T11:45:20;99212.41;;;34.50;60.15
7668;BME280;3876;42.204;24.686;2023-08-24T11:47:48;99210.75;;;34.56;54.39
7668;BME280;3876;42.204;24.686;2023-08-24T11:50:15;99207.53;;;34.67;52.13
7668;BME280;3876;42.204;24.686;2023-08-24T11:52:42;99199.31;;;34.75;53.60
7668;BME280;3876;42.204;24.686;2023-08-24T11:55:10;99199.31;;;34.88;53.78
7668;BME280;3876;42.204;24.686;2023-08-24T11:57:37;99191.91;;;34.97;52.58
7668;BME280;3876;42.204;24.686;2023-08-24T12:00:06;99197.63;;;35.00;52.20
7668;BME280;3876;42.204;24.686;2023-08-24T12:02:34;99201.34;;;35.06;50.44
7668;BME280;3876;42.204;24.686;2023-08-24T12:05:06;99199.72;;;35.11;51.37
7668;BME280;3876;42.204;24.686;2023-08-24T12:07:33;99197.66;;;35.13;52.75
7668;BME280;3876;42.204;24.686;2023-08-24T12:10:00;99191.47;;;35.26;48.62
7668;BME280;3876;42.204;24.686;2023-08-24T12:12:28;99186.31;;;35.38;50.24
7668;BME280;3876;42.204;24.686;2023-08-24T12:14:55;99180.53;;;35.47;48.20
7668;BME280;3876;42.204;24.686;2023-08-24T12:17:23;99176.78;;;35.55;44.42
7668;BME280;3876;42.204;24.686;2023-08-24T12:19:57;99165.50;;;35.66;46.83
7668;BME280;3876;42.204;24.686;2023-08-24T12:22:25;99160.59;;;35.63;45.59
7668;BME280;3876;42.204;24.686;2023-08-24T12:24:52;99156.47;;;35.67;49.44
7668;BME280;3876;42.204;24.686;2023-08-24T12:27:19;99154.38;;;35.75;46.18
7668;BME280;3876;42.204;24.686;2023-08-24T12:29:48;99159.59;;;35.95;45.77
7668;BME280;3876;42.204;24.686;2023-08-24T12:32:16;99154.59;;;36.05;45.80
7668;BME280;3876;42.204;24.686;2023-08-24T12:34:45;99150.47;;;36.09;43.90
7668;BME280;3876;42.204;24.686;2023-08-24T12:37:12;99147.56;;;36.17;45.92
7668;BME280;3876;42.204;24.686;2023-08-24T12:39:40;99147.13;;;36.20;45.49
7668;BME280;3876;42.204;24.686;2023-08-24T12:42:07;99151.25;;;36.16;42.99
7668;BME280;3876;42.204;24.686;2023-08-24T12:44:33;99153.09;;;36.16;43.37
7668;BME280;3876;42.204;24.686;2023-08-24T12:47:03;99136.94;;;36.11;44.51
7668;BME280;3876;42.204;24.686;2023-08-24T12:49:30;99162.25;;;36.26;42.49
7668;BME280;3876;42.204;24.686;2023-08-24T12:51:57;99160.56;;;36.32;40.97
7668;BME280;3876;42.204;24.686;2023-08-24T12:54:23;99159.34;;;36.35;39.98
7668;BME280;3876;42.204;24.686;2023-08-24T12:56:50;99158.28;;;36.36;40.05
7668;BME280;3876;42.204;24.686;2023-08-24T12:59:17;99148.22;;;36.38;39.53
7668;BME280;3876;42.204;24.686;2023-08-24T13:01:44;99151.03;;;36.43;42.54
7668;BME280;3876;42.204;24.686;2023-08-24T13:04:12;99147.53;;;36.42;42.31
7668;BME280;3876;42.204;24.686;2023-08-24T13:06:38;99137.94;;;36.41;42.41
7668;BME280;3876;42.204;24.686;2023-08-24T13:09:05;99128.03;;;36.42;41.08
7668;BME280;3876;42.204;24.686;2023-08-24T13:11:32;99128.34;;;36.52;43.18
7668;BME280;3876;42.204;24.686;2023-08-24T13:13:59;99130.88;;;36.47;42.29